Latest Weather Observations for Gunnedah Airport

IDN60801

Issued at 1:35 pm EDT Monday 24 November 2014 (issued every 30 minutes, with the page automatically refreshed every 10 minutes)

About weather observations | Map of weather stations | Latest weather observations for NSW | Other Formats
Station Details ID: 055202 Name: GUNNEDAH AIRPORT AWS Lat: -30.95 Lon: 150.25 Height: 262.57 m
Data from the previous 72 hours. | See also: Recent months at Gunnedah Airport
Date/Time
EDT
Temp
°C
App
Temp
°C
Dew
Point
Rel
Hum
%
Delta-T
°C
Wind Press
QNH
hPa
Press
MSL
hPa
Rain
since 9 am
mm
Dir
 
Spd
km/h
Gust
km/h
Spd
kts
Gust
kts
24/01:30pm 38.1 31.6 14.0 24 15.1 NW 41 56 22 30 1010.0 1008.9 0.0
24/01:16pm 37.8 31.0 14.4 25 14.7 WNW 43 52 23 28 1010.4 1009.2 0.0
24/01:00pm 38.7 34.1 14.5 24 15.3 NNW 32 50 17 27 1010.5 1009.3 0.0
24/12:57pm 38.2 33.6 14.7 24 14.9 NW 32 50 17 27 1010.6 1009.4 0.0
24/12:30pm 38.6 33.5 13.8 23 15.5 NNW 33 48 18 26 1010.7 1009.5 0.0
24/12:00pm 38.4 34.7 14.9 25 14.9 NW 28 41 15 22 1011.3 1010.1 0.0
24/11:30am 36.8 35.5 14.7 26 13.9 NNW 15 26 8 14 1011.8 1010.7 0.0
24/11:00am 35.1 33.3 14.4 29 12.9 NNW 17 24 9 13 1012.5 1011.4 0.0
24/10:30am 33.8 33.3 14.8 32 11.9 N 11 17 6 9 1012.8 1011.7 0.0
24/10:00am 32.0 31.1 13.7 33 11.2 NE 11 17 6 9 1013.0 1011.9 0.0
24/09:30am 30.2 30.3 15.5 41 9.2 E 9 15 5 8 1013.3 1012.2 0.0
24/09:00am 28.4 28.3 16.0 47 7.7 SE 11 17 6 9 1013.7 1012.6 6.0
24/08:30am 27.1 27.9 16.4 52 6.7 ESE 7 15 4 8 1013.8 1012.7 6.0
24/08:00am 25.8 25.6 16.6 56 5.7 SSE 13 19 7 10 1012.9 1011.8 6.0
24/07:30am 25.4 25.0 17.1 60 5.2 SE 15 17 8 9 1012.6 1011.5 6.0
24/07:00am 25.0 24.9 17.0 61 5.0 W 13 19 7 10 1013.0 1011.9 6.0
24/06:30am 24.3 24.7 16.3 61 4.9 N 9 17 5 9 1013.1 1012.0 6.0
24/06:00am 23.9 23.7 16.7 64 4.5 NNW 13 19 7 10 1013.6 1012.5 6.0
24/05:30am 25.9 24.3 15.9 54 6.2 N 19 28 10 15 1013.3 1012.2 6.0
24/05:00am 23.7 24.3 17.7 69 3.8 W 11 17 6 9 1013.3 1012.2 6.0
24/04:30am 23.6 23.0 17.6 69 3.8 N 17 22 9 12 1013.2 1012.1 5.8
24/04:00am 23.9 24.7 17.4 67 4.1 N 9 9 5 5 1013.3 1012.2 5.6
24/03:30am 24.7 25.6 16.7 61 5.0 W 7 13 4 7 1014.1 1013.0 5.6
24/03:00am 25.2 25.8 15.8 56 5.8 ENE 7 15 4 8 1013.8 1012.7 5.6
24/02:30am 23.4 24.0 17.8 71 3.5 SSW 11 15 6 8 1014.1 1013.0 5.6
24/02:00am 24.0 24.2 16.8 64 4.5 W 11 15 6 8 1014.5 1013.3 5.6
24/01:30am 26.4 26.1 14.5 48 7.2 W 9 13 5 7 1014.6 1013.4 4.8
24/01:00am 27.4 27.2 13.7 43 8.2 SSW 7 13 4 7 1013.7 1012.6 4.8
24/12:30am 28.5 25.3 12.0 36 9.7 N 20 26 11 14 1013.3 1012.2 4.8
24/12:09am 28.4 22.5 12.3 37 9.5 NE 35 54 19 29 1012.2 1011.1 4.8
24/12:00am 28.5 21.5 12.4 37 9.5 NE 41 56 22 30 1012.0 1010.9 4.8
 
Date/Time
EDT
Temp
°C
App
Temp
°C
Dew
Point
Rel
Hum
%
Delta-T
°C
Wind Press
QNH
hPa
Press
MSL
hPa
Rain
since 9 am
mm
Dir
 
Spd
km/h
Gust
km/h
Spd
kts
Gust
kts
23/11:30pm 27.3 19.8 14.0 44 8.0 NNE 46 61 25 33 1012.7 1011.6 4.8
23/11:20pm 27.0 23.0 14.1 45 7.8 N 28 46 15 25 1013.7 1012.6 4.8
23/11:00pm 27.3 24.8 14.0 44 8.0 NE 20 28 11 15 1014.3 1013.1 4.8
23/10:30pm 27.4 24.9 14.1 44 8.0 NNE 20 30 11 16 1015.9 1014.8 4.8
23/10:00pm 28.1 25.3 14.3 42 8.4 ENE 22 28 12 15 1014.7 1013.5 4.6
23/09:30pm 26.5 19.8 15.2 49 6.9 ENE 44 63 24 34 1013.3 1012.2 4.6
23/09:21pm 27.8 23.4 15.1 46 7.8 NE 32 50 17 27 1015.2 1014.1 3.8
23/09:19pm 27.1 23.1 15.1 47 7.3 NE 30 33 16 18 1015.7 1014.6 3.8
23/09:11pm 28.1 21.8 13.6 41 8.7 N 39 48 21 26 1015.4 1014.3 3.6
23/09:00pm 30.2 22.1 12.1 32 10.7 NE 46 70 25 38 1013.4 1012.3 3.4
23/08:57pm 32.3 23.9 10.9 27 12.5 ENE 46 70 25 38 1013.0 1011.9 3.4
23/08:47pm 30.5 24.1 11.9 31 11.0 ENE 37 54 20 29 1012.6 1011.5 3.4
23/08:30pm 29.7 24.6 13.0 35 10.0 SSW 32 54 17 29 1011.2 1010.0 3.4
23/08:16pm 31.5 26.1 12.3 31 11.5 SSW 32 56 17 30 1011.6 1010.4 3.4
23/08:00pm 27.5 22.7 14.5 45 7.9 S 33 44 18 24 1010.7 1009.5 3.4
23/07:54pm 28.0 22.2 12.8 39 9.0 S 35 43 19 23 1010.9 1009.7 3.0
23/07:41pm 33.5 26.0 9.5 23 13.8 WSW 39 57 21 31 1011.2 1010.0 3.0
23/07:30pm 34.9 26.2 7.9 19 15.3 SW 43 59 23 32 1011.1 1009.9 3.0
23/07:29pm 35.2 26.6 8.1 19 15.4 SW 43 59 23 32 1011.0 1009.8 3.0
23/07:00pm 35.2 30.6 8.1 19 15.4 SSW 22 35 12 19 1010.0 1008.9 3.0
23/06:30pm 34.9 31.2 7.9 19 15.3 SSW 17 20 9 11 1009.5 1008.4 3.0
23/06:00pm 34.7 28.6 8.4 20 15.0 SW 30 39 16 21 1009.5 1008.4 3.0
23/05:31pm 34.9 28.7 9.3 21 14.8 SW 32 59 17 32 1009.7 1008.6 3.0
23/05:30pm 35.0 29.2 9.4 21 14.8 SW 30 43 16 23 1009.7 1008.6 3.0
23/05:28pm 35.2 30.0 10.3 22 14.6 SW 28 43 15 23 1009.7 1008.6 3.0
23/05:00pm 37.7 35.5 10.9 20 16.1 N 13 15 7 8 1009.1 1008.0 3.0
23/04:30pm 38.2 35.4 11.3 20 16.2 N 17 33 9 18 1009.2 1008.1 3.0
23/04:00pm 39.4 35.9 12.3 20 16.7 N 22 30 12 16 1009.6 1008.5 3.0
23/03:30pm 36.7 33.4 11.5 22 15.2 ENE 20 28 11 15 1009.9 1008.8 3.0
23/03:02pm 32.3 27.9 13.0 31 11.7 NNE 28 43 15 23 1011.1 1009.9 1.4
23/03:00pm 37.3 33.6 12.7 23 15.1 NNE 24 33 13 18 1010.8 1009.6 0.0
23/02:30pm 40.0 35.8 7.4 14 18.7 NNW 19 35 10 19 1010.9 1009.7 0.0
23/02:00pm 40.9 38.5 7.1 13 19.4 NNW 9 15 5 8 1011.1 1009.9 0.0
23/01:30pm 41.6 36.6 6.4 12 20.1 W 22 30 12 16 1011.7 1010.6 0.0
23/01:00pm 40.1 37.1 12.1 19 17.2 WNW 19 26 10 14 1012.2 1011.1 0.0
23/12:30pm 38.2 35.7 14.1 24 15.1 WNW 20 30 11 16 1012.8 1011.7 0.0
23/12:00pm 38.9 36.3 11.9 20 16.5 WNW 17 24 9 13 1013.0 1011.9 0.0
23/11:30am 38.2 36.2 12.7 21 15.7 WNW 15 22 8 12 1013.1 1012.0 0.0
23/11:00am 37.5 35.4 13.5 24 14.9 NW 17 35 9 19 1013.4 1012.3 0.0
23/10:30am 36.4 34.2 13.2 25 14.3 NW 17 24 9 13 1013.6 1012.5 0.0
23/10:00am 35.4 33.9 13.0 26 13.7 WNW 13 20 7 11 1013.8 1012.7 0.0
23/09:30am 34.2 32.5 13.6 29 12.7 NW 15 20 8 11 1013.9 1012.8 0.0
23/09:00am 33.6 33.0 14.6 31 11.8 NNW 11 19 6 10 1013.8 1012.7 0.0
23/08:30am 32.1 32.0 13.3 31 11.4 N 6 11 3 6 1013.7 1012.6 0.0
23/08:00am 31.1 30.7 12.5 32 11.1 SE 6 9 3 5 1013.4 1012.3 0.0
23/07:30am 28.9 27.7 12.8 37 9.6 SSE 11 13 6 7 1013.0 1011.9 0.0
23/07:00am 25.4 24.7 14.2 50 6.7 S 11 13 6 7 1012.5 1011.4 0.0
23/06:30am 21.9 21.8 13.8 60 4.8 SSE 7 9 4 5 1012.2 1011.1 0.0
23/06:00am 21.3 20.9 14.0 63 4.3 SE 9 13 5 7 1012.0 1010.9 0.0
23/05:30am 21.4 20.3 13.1 59 4.8 SE 11 13 6 7 1011.7 1010.6 0.0
23/05:00am 19.3 17.7 11.6 61 4.3 SSE 11 13 6 7 1011.4 1010.2 0.0
23/04:30am 20.1 18.5 10.2 53 5.4 E 9 13 5 7 1011.3 1010.1 0.0
23/04:00am 20.2 18.2 10.3 53 5.4 S 11 15 6 8 1011.2 1010.0 0.0
23/03:30am 20.8 19.3 9.1 47 6.3 SSW 7 9 4 5 1011.0 1009.8 0.0
23/03:00am 19.6 17.0 9.2 51 5.6 S 13 13 7 7 1010.9 1009.7 0.0
23/02:30am 19.7 18.6 8.4 48 5.9 ENE 4 6 2 3 1011.0 1009.8 0.0
23/02:00am 20.4 17.6 7.1 42 6.9 N 11 13 6 7 1011.1 1009.9 0.0
23/01:30am 20.3 19.2 7.0 42 6.8 ENE 2 9 1 5 1011.2 1010.0 0.0
23/01:00am 23.7 22.8 7.8 36 8.5 SE 2 6 1 3 1011.4 1010.2 0.0
23/12:30am 22.7 20.9 7.3 37 8.1 ESE 6 7 3 4 1011.5 1010.3 0.0
23/12:00am 23.7 21.7 7.3 35 8.7 NE 7 11 4 6 1011.6 1010.4 0.0
 
Date/Time
EDT
Temp
°C
App
Temp
°C
Dew
Point
Rel
Hum
%
Delta-T
°C
Wind Press
QNH
hPa
Press
MSL
hPa
Rain
since 9 am
mm
Dir
 
Spd
km/h
Gust
km/h
Spd
kts
Gust
kts
22/11:30pm 24.0 22.2 7.2 34 8.9 SE 6 11 3 6 1011.6 1010.4 0.0
22/11:00pm 26.3 25.5 6.3 28 10.5 CALM 0 0 0 0 1011.8 1010.7 0.0
22/10:30pm 25.1 24.4 6.8 31 9.7 CALM 0 0 0 0 1011.6 1010.4 0.0
22/10:00pm 26.6 24.7 7.6 30 10.3 S 7 9 4 5 1011.3 1010.1 0.0
22/09:30pm 28.3 26.5 7.0 26 11.5 SW 6 9 3 5 1010.9 1009.7 0.0
22/09:00pm 27.2 25.3 9.1 32 10.1 SW 9 15 5 8 1010.5 1009.3 0.0
22/08:30pm 30.6 28.2 5.1 20 13.5 NNW 7 9 4 5 1009.7 1008.6 0.0
22/08:00pm 32.0 29.3 3.9 17 14.7 N 7 9 4 5 1009.4 1008.3 0.0
22/07:30pm 36.6 33.5 3.7 13 17.6 NW 9 11 5 6 1009.1 1008.0 0.0
22/07:00pm 38.4 35.4 4.0 12 18.7 NW 9 13 5 7 1008.7 1007.6 0.0
22/06:30pm 39.3 35.3 4.7 12 19.0 W 15 28 8 15 1008.4 1007.3 0.0
22/06:00pm 39.9 35.9 5.1 12 19.4 WNW 15 20 8 11 1008.3 1007.2 0.0
22/05:30pm 39.9 35.9 5.1 12 19.3 NW 15 20 8 11 1008.2 1007.0 0.0
22/05:00pm 39.8 34.5 5.1 12 19.3 NW 22 28 12 15 1008.3 1007.2 0.0
22/04:30pm 39.9 36.6 6.3 13 19.0 WNW 13 19 7 10 1008.6 1007.5 0.0
22/04:00pm 40.5 35.9 6.7 13 19.3 WNW 20 37 11 20 1008.8 1007.7 0.0
22/03:30pm 40.0 35.6 6.4 13 19.0 NW 19 33 10 18 1009.1 1008.0 0.0
22/03:00pm 39.7 35.9 3.7 11 19.6 W 13 20 7 11 1009.5 1008.4 0.0
22/02:30pm 38.9 35.6 4.4 12 18.9 WSW 11 20 6 11 1010.0 1008.9 0.0
22/02:00pm 38.6 33.7 4.1 12 18.8 W 19 28 10 15 1010.4 1009.2 0.0
22/01:30pm 38.7 33.8 4.2 12 18.8 WSW 19 20 10 11 1010.8 1009.6 0.0
22/01:00pm 37.6 33.3 3.4 12 18.3 NNW 15 22 8 12 1011.1 1009.9 0.0
22/12:30pm 37.9 34.0 3.6 12 18.4 WNW 13 26 7 14 1011.6 1010.4 0.0
22/12:00pm 37.1 32.6 4.1 13 17.8 WNW 17 24 9 13 1011.9 1010.8 0.0
22/11:30am 36.2 33.1 3.4 13 17.4 WNW 9 20 5 11 1012.2 1011.1 0.0
22/11:00am 35.2 31.9 4.7 15 16.4 W 11 19 6 10 1012.5 1011.4 0.0
22/10:30am 33.8 31.1 5.4 17 15.4 S 9 13 5 7 1012.8 1011.7 0.0
22/10:00am 33.0 30.1 6.3 19 14.6 S 11 15 6 8 1013.0 1011.9 0.0
22/09:30am 31.6 28.3 6.6 21 13.6 SE 13 19 7 10 1013.0 1011.9 0.0
22/09:00am 29.5 26.0 7.4 25 12.1 SE 15 19 8 10 1013.1 1012.0 0.0
22/08:30am 28.3 25.1 8.6 29 10.9 SE 15 20 8 11 1013.2 1012.1 0.0
22/08:00am 26.6 23.2 9.0 33 9.7 SE 17 22 9 12 1013.1 1012.0 0.0
22/07:30am 25.0 22.0 11.9 44 7.5 SSE 19 24 10 13 1012.8 1011.7 0.0
22/07:00am 24.3 22.3 12.6 48 6.8 SE 15 20 8 11 1012.4 1011.3 0.0
22/06:30am 19.7 17.1 9.3 51 5.6 SE 13 15 7 8 1012.0 1010.9 0.0
22/06:00am 16.8 14.4 6.9 52 5.0 S 9 11 5 6 1011.7 1010.6 0.0
22/05:30am 15.9 14.0 7.7 58 4.2 ESE 7 9 4 5 1011.5 1010.3 0.0
22/05:00am 16.6 14.6 7.3 54 4.7 SSE 7 9 4 5 1011.1 1009.9 0.0
22/04:30am 16.7 14.3 7.1 53 4.8 NNE 9 11 5 6 1010.6 1009.4 0.0
22/04:00am 18.0 16.4 8.0 52 5.2 SW 6 7 3 4 1010.1 1009.0 0.0
22/03:30am 18.0 17.2 6.5 47 5.8 CALM 0 0 0 0 1010.1 1009.0 0.0
22/03:00am 18.9 17.4 6.7 45 6.2 S 4 7 2 4 1010.4 1009.2 0.0
22/02:30am 20.9 19.1 7.2 41 7.1 S 6 7 3 4 1010.5 1009.3 0.0
22/02:00am 19.6 17.4 7.7 46 6.2 S 9 11 5 6 1010.7 1009.5 0.0
22/01:30am 20.9 18.6 5.7 37 7.7 E 7 7 4 4 1010.9 1009.7 0.0
22/01:00am 20.7 18.3 5.1 36 7.8 ENE 7 9 4 5 1011.0 1009.8 0.0
22/12:30am 23.5 20.8 5.4 31 9.2 E 9 11 5 6 1011.0 1009.8 0.0
22/12:00am 26.1 22.9 5.1 26 10.8 E 11 17 6 9 1010.9 1009.7 0.0
 
Date/Time
EDT
Temp
°C
App
Temp
°C
Dew
Point
Rel
Hum
%
Delta-T
°C
Wind Press
QNH
hPa
Press
MSL
hPa
Rain
since 9 am
mm
Dir
 
Spd
km/h
Gust
km/h
Spd
kts
Gust
kts
21/11:30pm 26.6 24.6 4.4 24 11.3 S 4 9 2 5 1010.8 1009.6 0.0
21/11:00pm 29.4 25.0 4.8 21 12.9 S 17 22 9 12 1010.6 1009.4 0.0
21/10:30pm 30.8 25.8 4.5 19 13.8 SSW 20 26 11 14 1010.4 1009.2 0.0
21/10:00pm 31.8 26.3 3.8 17 14.6 SW 22 33 12 18 1010.0 1008.9 0.0
21/09:30pm 32.1 27.0 3.1 16 15.0 SW 19 26 10 14 1009.6 1008.5 0.0
21/09:00pm 30.1 26.0 2.4 17 14.0 WSW 13 20 7 11 1009.2 1008.1 0.0
21/08:30pm 31.5 26.6 1.8 15 14.9 WSW 17 24 9 13 1008.5 1007.4 0.0
21/08:00pm 31.7 26.9 -0.1 13 15.6 WSW 15 17 8 9 1008.0 1006.8 0.0
21/07:30pm 34.5 28.7 -0.2 11 17.2 WSW 20 28 11 15 1007.5 1006.3 0.0
21/07:00pm 36.2 28.9 -0.2 10 18.3 WSW 28 37 15 20 1007.1 1005.9 0.0
21/06:30pm 37.3 29.5 -0.9 9 19.1 WSW 30 43 16 23 1006.6 1005.4 0.0
21/06:00pm 38.4 30.3 0.0 9 19.6 W 32 46 17 25 1006.0 1004.9 0.0
21/05:30pm 37.5 31.7 4.4 13 18.0 NW 24 39 13 21 1005.8 1004.7 0.0
21/05:00pm 38.1 35.0 8.8 17 17.1 W 15 22 8 12 1006.0 1004.9 0.0
21/04:30pm 37.4 32.3 9.1 18 16.5 NW 26 44 14 24 1006.4 1005.2 0.0
21/04:00pm 37.6 32.3 8.4 17 16.9 NNW 26 39 14 21 1006.6 1005.4 0.0
21/03:30pm 37.9 32.2 11.1 20 16.1 NNW 32 46 17 25 1007.0 1005.8 0.0
21/03:00pm 36.0 30.8 10.2 21 15.2 NNW 28 46 15 25 1007.5 1006.3 0.0
21/02:53pm 36.3 31.0 9.8 20 15.5 NW 28 46 15 25 1007.5 1006.3 0.0
21/02:30pm 37.6 32.9 10.8 20 16.0 NNW 26 41 14 22 1007.9 1006.7 0.0
21/02:00pm 37.3 32.6 12.0 22 15.4 NNW 28 54 15 29 1008.2 1007.0 0.0

Other Formats:

Comma delimited format used in spreadsheet applications
http://www.bom.gov.au/fwo/IDN60801/IDN60801.95740.axf

JavaScript Object Notation format (JSON) in row-major order
http://www.bom.gov.au/fwo/IDN60801/IDN60801.95740.json